Home > Products > Valid Products > TAF

000
FTUS44 KLUB 311500 AAA
TAFCDS
TAF AMD
KCDS 311503Z 3115/0112 36011KT P6SM OVC023
     FM311600 04009KT P6SM SCT120=



000
FTUS44 KLUB 311400 AAA
TAFLBB
TAF AMD
KLBB 311405Z 3114/0112 02010KT P6SM BKN018 OVC160
     FM311700 06010KT P6SM SCT050 BKN120=



000
FTUS44 KLUB 311100
TAFCDS
TAF
KCDS 311120Z 3112/0112 36009KT P6SM OVC019
      TEMPO 3112/3113 6SM BR OVC008
     FM311500 04009KT P6SM SCT120=



000
FTUS44 KLUB 311100
TAFLBB
TAF
KLBB 311120Z 3112/0112 02010KT P6SM BKN025 OVC170
      TEMPO 3112/3114 OVC015
     FM311700 06010KT P6SM SCT050 BKN120=



000
FTUS44 KLUB 310900 AAA
TAFCDS
TAF AMD
KCDS 310900Z 3109/0106 02009KT P6SM OVC015
      TEMPO 3111/3113 6SM BR OVC008
     FM311500 04009KT P6SM SCT120=



000
FTUS44 KLUB 310500
TAFLBB
TAF
KLBB 310520Z 3106/0106 02013G23KT P6SM BKN017
      TEMPO 3107/3111 OVC007
     FM311700 06010KT P6SM SCT050 BKN120=



000
FTUS44 KLUB 310500
TAFCDS
TAF
KCDS 310520Z 3106/0106 01012G22KT P6SM SCT010 BKN025
      TEMPO 3106/3109 SCT025 BKN050
     FM311500 04009KT P6SM SCT120=



000
FTUS44 KLUB 310400 AAC
TAFLBB
TAF AMD
KLBB 310419Z 3104/3124 01013G23KT P6SM BKN017
      TEMPO 3107/3111 OVC007
     FM311500 03010KT P6SM FEW150=



000
FTUS44 KLUB 310300 AAA
TAFCDS
TAF AMD
KCDS 310359Z 3104/3124 01012G22KT P6SM SCT010 BKN025
     FM310500 01013KT P6SM OVC015
     FM311500 01009KT P6SM SCT150=



000
FTUS44 KLUB 310300 AAA
TAFCDS
TAF AMD
KCDS 310359Z 3104/3124 01012G22KT P6SM SCT010 BKN025
     FM310500 01013KT P6SM OVC015
     FM311500 01009KT P6SM SCT150=



000
FTUS44 KLUB 310300 AAB
TAFLBB
TAF AMD
KLBB 310358Z 3104/3124 01013G23KT P6SM SCT017 BKN150
     FM310600 02012KT P6SM BKN012
      TEMPO 3109/3113 OVC007
     FM311500 03010KT P6SM FEW150=



000
FTUS44 KLUB 310300 AAB
TAFLBB
TAF AMD
KLBB 310358Z 3104/3124 01013G23KT P6SM SCT017 BKN150
     FM310600 02012KT P6SM BKN012
      TEMPO 3109/3113 OVC007
     FM311500 03010KT P6SM FEW150=



000
FTUS44 KLUB 310200 AAA
TAFLBB
TAF AMD
KLBB 310255Z 3103/3124 01013G23KT P6SM SCT030
     FM310700 02012KT P6SM BKN012
      TEMPO 3109/3113 OVC007
     FM311500 03010KT P6SM FEW150=



000
FTUS44 KLUB 302300
TAFCDS
TAF
KCDS 302333Z 3100/3124 36009KT P6SM BKN050
     FM310300 01013KT P6SM OVC015
     FM311500 01009KT P6SM SCT150=



000
FTUS44 KLUB 302300
TAFLBB
TAF
KLBB 302333Z 3100/3124 01013KT P6SM SCT050
     FM310700 02012KT P6SM BKN012
      TEMPO 3109/3113 OVC007
     FM311500 03010KT P6SM FEW150=



000
FTUS44 KLUB 302100 AAA
TAFCDS
TAF AMD
KCDS 302133Z 3022/3118 34009KT P6SM BKN050
     FM310300 01013KT P6SM OVC015
     FM311500 01009KT P6SM SCT150=



000
FTUS44 KLUB 301700
TAFLBB
TAF
KLBB 301723Z 3018/3118 24010KT P6SM FEW250
     FM302100 36013KT P6SM SCT050
      TEMPO 3110/3114 BKN012=



000
FTUS44 KLUB 301700
TAFCDS
TAF
KCDS 301723Z 3018/3118 16010KT P6SM SCT100
     FM302100 02013KT P6SM SCT050
     FM310300 01013KT P6SM OVC015
     FM311500 01009KT P6SM SCT150=



000
FTUS44 KLUB 301100
TAFLBB
TAF
KLBB 301123Z 3012/3112 14006KT P6SM BKN110 BKN130 BKN160
     FM301500 20014KT P6SM SCT050 SCT100
     FM302100 35015KT P6SM BKN050 OVC100 PROB30 3021/3103 5SM -TSRA
      OVC040CB
     FM310500 03011KT 6SM BR OVC030=



000
FTUS44 KLUB 301100
TAFCDS
TAF
KCDS 301123Z 3012/3112 12005KT P6SM -RA FEW070 BKN110
     FM301500 18013KT P6SM SCT050 BKN100 PROB30 3021/3103 04012KT
      5SM -TSRA OVC050CB
     FM310300 03011KT 6SM BR OVC020=



000
FTUS44 KLUB 301000 AAA
TAFCDS
TAF AMD
KCDS 301008Z 3010/3106 10005KT P6SM -RA OVC100
      TEMPO 3010/3012 VRB15G25KT 5SM -TSRA BKN030CB OVC100
     FM301200 16012KT P6SM SCT020 BKN100
     FM301500 18013KT P6SM SCT050 BKN100 PROB30 3021/3103 04012KT
      5SM -TSRA OVC050CB=



000
FTUS44 KLUB 300600 RRA
TAFCDS
TAF
KCDS 300606Z 3006/3106 12010KT 4SM -TSRA BR FEW045CB BKN070 OVC090
     FM300800 14011KT 5SM -SHRA BKN040 OVC100
      TEMPO 3008/3012 VRB15G25KT 3SM TSRA BKN030CB OVC100
     FM301200 16012KT P6SM SCT020 BKN100
     FM301500 18013KT P6SM SCT050 BKN100=



000
FTUS44 KLUB 300600 RRA
TAFLBB
TAF
KLBB 300606Z 3006/3106 10009KT P6SM SCT050 OVC100
     FM301000 15009KT P6SM SCT010 SCT050 OVC100
     FM301500 20014KT P6SM SCT050 SCT100=



000
FTUS44 KLUB 292300
TAFLBB
TAF
KLBB 292320Z 3000/3024 10009KT P6SM SCT050 OVC100
     FM301000 15009KT P6SM SCT010 SCT050 OVC100
     FM301500 20014KT P6SM SCT050 SCT100=



000
FTUS44 KLUB 292300
TAFCDS
TAF
KCDS 292320Z 3000/3024 12010KT P6SM SCT050 BKN100
     FM300800 14011KT 5SM -SHRA BKN040 OVC100
      TEMPO 3008/3012 VRB15G25KT 3SM TSRA BKN030CB OVC100
     FM301200 16012KT P6SM SCT020 BKN100
     FM301500 18013KT P6SM SCT050 BKN100=



000
FTUS44 KLUB 291700
TAFCDS
TAF
KCDS 291722Z 2918/3018 16008KT P6SM SCT050 BKN100 PROB30 3003/3009
      -TSRA OVC040CB=



000
FTUS44 KLUB 291700
TAFLBB
TAF
KLBB 291722Z 2918/3018 15009KT P6SM SCT050 BKN150=



000
FTUS44 KLUB 291100
TAFCDS
TAF
KCDS 291126Z 2912/3012 10007KT P6SM SCT080 BKN150
      TEMPO 2916/2920 6SM TSRA BKN040CB OVC100
     FM292000 14012KT P6SM FEW040 BKN100 PROB30 3000/3006 VRB10G25KT
      6SM -TSRA BKN040CB OVC100=



000
FTUS44 KLUB 291100
TAFLBB
TAF
KLBB 291126Z 2912/3012 12008KT P6SM SCT060 BKN150
      TEMPO 2912/2916 6SM SHRA BKN050 OVC150
     FM291700 14014KT P6SM FEW060 BKN150=



000
FTUS44 KLUB 290500
TAFCDS
TAF
KCDS 290520Z 2906/3006 12007KT P6SM OVC100
      TEMPO 2913/2917 VRB10G20KT 6SM -TSRA BKN040CB OVC150
     FM291800 14012KT P6SM OVC100 PROB30 3000/3006 VRB10G25KT 6SM
      -TSRA BKN040CB OVC100=



000
FTUS44 KLUB 290500
TAFLBB
TAF
KLBB 290520Z 2906/3006 10009KT P6SM OVC150
      TEMPO 2909/2913 VRB10G20KT 6SM -TSRA BKN040CB OVC150
     FM291800 14014KT P6SM OVC100=



000
FTUS44 KLUB 282300
TAFCDS
TAF
KCDS 282320Z 2900/2924 10010KT P6SM BKN070 BKN150
     FM290900 10008KT P6SM OVC100 PROB30 2909/2915 -TSRA BKN040CB=



000
FTUS44 KLUB 282300
TAFLBB
TAF
KLBB 282320Z 2900/2924 07012G20KT P6SM FEW030 BKN300
     FM290300 10009KT P6SM OVC100=



000
FTUS44 KLUB 282100 AAA
TAFCDS
TAF AMD
KCDS 282132Z 2822/2918 11010KT P6SM BKN070 BKN150
      TEMPO 2822/2901 11010KT 6SM -TSRA BKN040CB
     FM290900 12010KT P6SM OVC100 PROB30 2909/2915 -TSRA BKN040CB=



000
FTUS44 KLUB 281700
TAFLBB
TAF
KLBB 281725Z 2818/2918 07015G24KT P6SM SCT060 BKN250
     FM290300 10011KT P6SM BKN100 PROB30 2908/2914 -TSRA BKN040CB=



000
FTUS44 KLUB 281700
TAFCDS
TAF
KCDS 281725Z 2818/2918 07011G17KT P6SM VCTS SCT040CB BKN100
     FM282000 11015KT P6SM BKN070 BKN150
     FM290900 12010KT P6SM OVC100 PROB30 2909/2915 -TSRA BKN040CB=



000
FTUS44 KLUB 281700 AAA
TAFCDS
TAF AMD
KCDS 281700Z 2817/2912 07011G17KT P6SM VCTS SCT060CB BKN100
     FM282000 11010KT P6SM BKN080 BKN150=



    US Dept of Commerce
    National Oceanic and Atmospheric Administration
    National Weather Service
    1325 East West Highway
    Silver Spring, MD 20910
    Page Author: NWS Internet Services Team
Disclaimer
Information Quality
Credits
Glossary
Privacy Policy
Freedom of Information Act (FOIA)
About Us
Career Opportunities